Current Conditions
Overcast
Conditions



Pressure
1034.92 (mb) - 30.56 (inHG)
Visibility

6.2 (miles) - 10.0 (km)
Temperature
2  °C
Temperature
0  °C
Dewpoint
87  %
 Humidity
Wind Speed
3  mph
3  kts
5  km/h
1.3  m/s
Wind Direction
N
45°
E
90°
135°
S
180°
225°
W
270°
315°
 130°

South East
Airport Data
EGGD
Bristol Airport
Metar :EGGD 230850Z AUTO 13003KT 090V180 9999 OVC012 02/M00 Q1035
Sun 23rd January 08:50 am
Raw Metar Info
Raw METAR is the most common format in the world for the transmission of observational weather data. It is highly standardized through the International Civil Aviation Organization (ICAO), which allows it to be understood throughout most of the world.
API Info
Data Provided by
https://www.checkwx.com/weather/EGGD

Aviation Weather providing METAR, TAF, AIRMET, SIGMET and OUTLOOK Weather Reports
© Info
CSS/SVG/PHP scripts were developed by weather34 for use in the weather34 template © 2015-2022

Guide Info provided by Metar-Wikipedia